sensor_id;sensor_type;location;lat;lon;timestamp;P1;durP1;ratioP1;P2;durP2;ratioP2
85293;SDS011;76388;43.958;2.882;2024-02-26T00:00:08;8.40;;;3.67;;
85293;SDS011;76388;43.958;2.882;2024-02-26T00:02:36;7.25;;;3.17;;
85293;SDS011;76388;43.958;2.882;2024-02-26T00:05:05;8.18;;;3.50;;
85293;SDS011;76388;43.958;2.882;2024-02-26T00:07:32;12.23;;;4.47;;
85293;SDS011;76388;43.958;2.882;2024-02-26T00:09:58;13.18;;;4.90;;
85293;SDS011;76388;43.958;2.882;2024-02-26T00:12:24;18.42;;;5.95;;
85293;SDS011;76388;43.958;2.882;2024-02-26T00:14:50;18.88;;;7.60;;
85293;SDS011;76388;43.958;2.882;2024-02-26T00:17:18;16.33;;;6.13;;
85293;SDS011;76388;43.958;2.882;2024-02-26T00:19:44;18.90;;;6.82;;
85293;SDS011;76388;43.958;2.882;2024-02-26T00:22:10;13.18;;;5.18;;
85293;SDS011;76388;43.958;2.882;2024-02-26T00:24:36;11.80;;;4.35;;
85293;SDS011;76388;43.958;2.882;2024-02-26T00:27:02;14.02;;;5.20;;
85293;SDS011;76388;43.958;2.882;2024-02-26T00:29:28;13.40;;;5.32;;
85293;SDS011;76388;43.958;2.882;2024-02-26T00:31:55;15.43;;;5.15;;
85293;SDS011;76388;43.958;2.882;2024-02-26T00:34:21;16.42;;;5.28;;
85293;SDS011;76388;43.958;2.882;2024-02-26T00:36:47;17.13;;;6.57;;
85293;SDS011;76388;43.958;2.882;2024-02-26T00:39:13;27.35;;;11.10;;
85293;SDS011;76388;43.958;2.882;2024-02-26T00:41:40;21.10;;;8.38;;
85293;SDS011;76388;43.958;2.882;2024-02-26T00:44:06;12.48;;;5.07;;
85293;SDS011;76388;43.958;2.882;2024-02-26T00:46:33;22.48;;;10.05;;
85293;SDS011;76388;43.958;2.882;2024-02-26T00:48:59;11.00;;;4.80;;
85293;SDS011;76388;43.958;2.882;2024-02-26T00:51:25;12.27;;;5.00;;
85293;SDS011;76388;43.958;2.882;2024-02-26T00:53:52;12.32;;;4.20;;
85293;SDS011;76388;43.958;2.882;2024-02-26T00:56:18;9.35;;;4.20;;
85293;SDS011;76388;43.958;2.882;2024-02-26T00:58:44;9.60;;;3.85;;
85293;SDS011;76388;43.958;2.882;2024-02-26T01:01:10;13.85;;;5.28;;
85293;SDS011;76388;43.958;2.882;2024-02-26T01:03:36;13.90;;;6.22;;
85293;SDS011;76388;43.958;2.882;2024-02-26T01:06:02;15.38;;;6.78;;
85293;SDS011;76388;43.958;2.882;2024-02-26T01:08:29;16.27;;;6.85;;
85293;SDS011;76388;43.958;2.882;2024-02-26T01:10:56;14.45;;;6.28;;
85293;SDS011;76388;43.958;2.882;2024-02-26T01:13:22;16.65;;;7.13;;
85293;SDS011;76388;43.958;2.882;2024-02-26T01:15:49;12.38;;;5.38;;
85293;SDS011;76388;43.958;2.882;2024-02-26T01:18:15;12.23;;;4.85;;
85293;SDS011;76388;43.958;2.882;2024-02-26T01:20:41;11.38;;;4.43;;
85293;SDS011;76388;43.958;2.882;2024-02-26T01:23:07;11.20;;;4.20;;
85293;SDS011;76388;43.958;2.882;2024-02-26T01:25:33;44.70;;;18.40;;
85293;SDS011;76388;43.958;2.882;2024-02-26T01:27:59;12.45;;;5.28;;
85293;SDS011;76388;43.958;2.882;2024-02-26T01:30:26;10.35;;;4.32;;
85293;SDS011;76388;43.958;2.882;2024-02-26T01:32:52;9.70;;;3.35;;
85293;SDS011;76388;43.958;2.882;2024-02-26T01:35:18;26.65;;;10.57;;
85293;SDS011;76388;43.958;2.882;2024-02-26T01:37:45;17.40;;;7.22;;
85293;SDS011;76388;43.958;2.882;2024-02-26T01:40:11;17.05;;;6.05;;
85293;SDS011;76388;43.958;2.882;2024-02-26T01:42:43;14.85;;;6.38;;
85293;SDS011;76388;43.958;2.882;2024-02-26T01:45:16;15.95;;;5.82;;
85293;SDS011;76388;43.958;2.882;2024-02-26T01:47:49;12.35;;;5.30;;
85293;SDS011;76388;43.958;2.882;2024-02-26T01:50:17;32.72;;;14.13;;
85293;SDS011;76388;43.958;2.882;2024-02-26T01:52:44;15.45;;;6.50;;
85293;SDS011;76388;43.958;2.882;2024-02-26T01:55:12;9.45;;;4.35;;
85293;SDS011;76388;43.958;2.882;2024-02-26T01:57:40;7.55;;;3.05;;
85293;SDS011;76388;43.958;2.882;2024-02-26T02:00:07;26.52;;;10.48;;
85293;SDS011;76388;43.958;2.882;2024-02-26T02:02:34;24.52;;;8.45;;
85293;SDS011;76388;43.958;2.882;2024-02-26T02:05:01;64.53;;;15.85;;
85293;SDS011;76388;43.958;2.882;2024-02-26T02:07:28;56.10;;;14.40;;
85293;SDS011;76388;43.958;2.882;2024-02-26T02:09:54;10.25;;;3.90;;
85293;SDS011;76388;43.958;2.882;2024-02-26T02:12:21;9.80;;;3.10;;
85293;SDS011;76388;43.958;2.882;2024-02-26T02:14:47;9.35;;;2.78;;
85293;SDS011;76388;43.958;2.882;2024-02-26T02:17:13;6.65;;;2.50;;
85293;SDS011;76388;43.958;2.882;2024-02-26T02:19:40;8.68;;;2.55;;
85293;SDS011;76388;43.958;2.882;2024-02-26T02:22:06;7.00;;;2.38;;
85293;SDS011;76388;43.958;2.882;2024-02-26T02:24:32;6.72;;;1.50;;
85293;SDS011;76388;43.958;2.882;2024-02-26T02:26:58;8.52;;;2.30;;
85293;SDS011;76388;43.958;2.882;2024-02-26T02:29:25;6.47;;;2.42;;
85293;SDS011;76388;43.958;2.882;2024-02-26T02:31:53;6.97;;;2.03;;
85293;SDS011;76388;43.958;2.882;2024-02-26T02:34:20;3.40;;;1.42;;
85293;SDS011;76388;43.958;2.882;2024-02-26T02:36:48;10.05;;;2.03;;
85293;SDS011;76388;43.958;2.882;2024-02-26T02:39:16;6.40;;;1.60;;
85293;SDS011;76388;43.958;2.882;2024-02-26T02:41:42;6.78;;;1.65;;
85293;SDS011;76388;43.958;2.882;2024-02-26T02:44:08;5.32;;;1.40;;
85293;SDS011;76388;43.958;2.882;2024-02-26T02:46:34;7.10;;;1.63;;
85293;SDS011;76388;43.958;2.882;2024-02-26T02:49:00;7.60;;;2.00;;
85293;SDS011;76388;43.958;2.882;2024-02-26T02:51:27;7.43;;;1.80;;
85293;SDS011;76388;43.958;2.882;2024-02-26T02:53:53;8.90;;;2.00;;
85293;SDS011;76388;43.958;2.882;2024-02-26T02:56:19;9.20;;;1.98;;
85293;SDS011;76388;43.958;2.882;2024-02-26T02:58:45;9.23;;;2.10;;
85293;SDS011;76388;43.958;2.882;2024-02-26T03:01:12;10.73;;;1.90;;
85293;SDS011;76388;43.958;2.882;2024-02-26T03:03:39;6.82;;;1.50;;
85293;SDS011;76388;43.958;2.882;2024-02-26T03:06:05;7.47;;;1.80;;
85293;SDS011;76388;43.958;2.882;2024-02-26T03:08:31;6.95;;;1.63;;
85293;SDS011;76388;43.958;2.882;2024-02-26T03:10:58;5.97;;;1.60;;
85293;SDS011;76388;43.958;2.882;2024-02-26T03:13:25;12.23;;;3.28;;
85293;SDS011;76388;43.958;2.882;2024-02-26T03:15:51;12.32;;;5.10;;
85293;SDS011;76388;43.958;2.882;2024-02-26T03:18:17;12.43;;;5.15;;
85293;SDS011;76388;43.958;2.882;2024-02-26T03:20:43;9.77;;;4.47;;
85293;SDS011;76388;43.958;2.882;2024-02-26T03:23:10;8.90;;;4.18;;
85293;SDS011;76388;43.958;2.882;2024-02-26T03:25:38;8.65;;;3.17;;
85293;SDS011;76388;43.958;2.882;2024-02-26T03:28:04;13.50;;;3.55;;
85293;SDS011;76388;43.958;2.882;2024-02-26T03:30:31;8.90;;;3.85;;
85293;SDS011;76388;43.958;2.882;2024-02-26T03:32:57;11.82;;;3.10;;
85293;SDS011;76388;43.958;2.882;2024-02-26T03:35:23;10.00;;;2.70;;
85293;SDS011;76388;43.958;2.882;2024-02-26T03:37:49;12.05;;;2.67;;
85293;SDS011;76388;43.958;2.882;2024-02-26T03:40:17;9.52;;;2.60;;
85293;SDS011;76388;43.958;2.882;2024-02-26T03:42:45;9.27;;;2.80;;
85293;SDS011;76388;43.958;2.882;2024-02-26T03:45:11;7.05;;;3.08;;
85293;SDS011;76388;43.958;2.882;2024-02-26T03:47:38;10.45;;;2.90;;
85293;SDS011;76388;43.958;2.882;2024-02-26T03:50:05;9.02;;;3.00;;
85293;SDS011;76388;43.958;2.882;2024-02-26T03:52:32;12.50;;;2.92;;
85293;SDS011;76388;43.958;2.882;2024-02-26T03:54:59;9.13;;;2.70;;
85293;SDS011;76388;43.958;2.882;2024-02-26T03:57:25;11.63;;;2.88;;
85293;SDS011;76388;43.958;2.882;2024-02-26T03:59:51;10.68;;;2.78;;
85293;SDS011;76388;43.958;2.882;2024-02-26T04:02:17;11.48;;;3.00;;
85293;SDS011;76388;43.958;2.882;2024-02-26T04:04:45;11.05;;;2.75;;
85293;SDS011;76388;43.958;2.882;2024-02-26T04:07:12;11.50;;;2.67;;
85293;SDS011;76388;43.958;2.882;2024-02-26T04:09:38;14.65;;;3.17;;
85293;SDS011;76388;43.958;2.882;2024-02-26T04:12:05;10.60;;;2.58;;
85293;SDS011;76388;43.958;2.882;2024-02-26T04:14:31;9.70;;;2.30;;
85293;SDS011;76388;43.958;2.882;2024-02-26T04:16:57;8.05;;;2.22;;
85293;SDS011;76388;43.958;2.882;2024-02-26T04:19:23;10.52;;;2.50;;
85293;SDS011;76388;43.958;2.882;2024-02-26T04:21:50;7.57;;;2.10;;
85293;SDS011;76388;43.958;2.882;2024-02-26T04:24:16;9.60;;;1.92;;
85293;SDS011;76388;43.958;2.882;2024-02-26T04:26:42;10.52;;;1.95;;
85293;SDS011;76388;43.958;2.882;2024-02-26T04:29:08;10.65;;;2.42;;
85293;SDS011;76388;43.958;2.882;2024-02-26T04:31:34;11.73;;;1.95;;
85293;SDS011;76388;43.958;2.882;2024-02-26T04:34:00;11.90;;;3.25;;
85293;SDS011;76388;43.958;2.882;2024-02-26T04:36:26;11.00;;;2.97;;
85293;SDS011;76388;43.958;2.882;2024-02-26T04:38:52;10.43;;;2.17;;
85293;SDS011;76388;43.958;2.882;2024-02-26T04:41:21;10.93;;;2.10;;
85293;SDS011;76388;43.958;2.882;2024-02-26T04:43:47;8.40;;;1.95;;
85293;SDS011;76388;43.958;2.882;2024-02-26T04:46:13;8.60;;;1.85;;
85293;SDS011;76388;43.958;2.882;2024-02-26T04:48:39;13.70;;;2.25;;
85293;SDS011;76388;43.958;2.882;2024-02-26T04:51:07;12.50;;;2.63;;
85293;SDS011;76388;43.958;2.882;2024-02-26T04:53:33;14.65;;;2.95;;
85293;SDS011;76388;43.958;2.882;2024-02-26T04:55:59;18.05;;;3.17;;
85293;SDS011;76388;43.958;2.882;2024-02-26T04:58:25;17.48;;;3.53;;
85293;SDS011;76388;43.958;2.882;2024-02-26T05:00:51;14.68;;;3.53;;
85293;SDS011;76388;43.958;2.882;2024-02-26T05:03:17;20.33;;;5.03;;
85293;SDS011;76388;43.958;2.882;2024-02-26T05:05:43;23.42;;;5.68;;
85293;SDS011;76388;43.958;2.882;2024-02-26T05:08:10;17.52;;;4.45;;
85293;SDS011;76388;43.958;2.882;2024-02-26T05:10:37;14.88;;;4.25;;
85293;SDS011;76388;43.958;2.882;2024-02-26T05:13:07;18.38;;;5.13;;
85293;SDS011;76388;43.958;2.882;2024-02-26T05:15:33;20.50;;;6.05;;
85293;SDS011;76388;43.958;2.882;2024-02-26T05:17:59;20.50;;;5.70;;
85293;SDS011;76388;43.958;2.882;2024-02-26T05:20:25;9.32;;;2.90;;
85293;SDS011;76388;43.958;2.882;2024-02-26T05:22:51;11.98;;;2.75;;
85293;SDS011;76388;43.958;2.882;2024-02-26T05:25:17;13.43;;;1.83;;
85293;SDS011;76388;43.958;2.882;2024-02-26T05:27:44;7.68;;;1.02;;
85293;SDS011;76388;43.958;2.882;2024-02-26T05:30:11;6.22;;;1.40;;
85293;SDS011;76388;43.958;2.882;2024-02-26T05:32:37;6.68;;;1.52;;
85293;SDS011;76388;43.958;2.882;2024-02-26T05:35:04;4.68;;;1.02;;
85293;SDS011;76388;43.958;2.882;2024-02-26T05:37:30;8.45;;;1.40;;
85293;SDS011;76388;43.958;2.882;2024-02-26T05:39:56;9.88;;;1.40;;
85293;SDS011;76388;43.958;2.882;2024-02-26T05:42:23;7.57;;;1.30;;
85293;SDS011;76388;43.958;2.882;2024-02-26T05:44:49;6.85;;;1.20;;
85293;SDS011;76388;43.958;2.882;2024-02-26T05:47:16;6.38;;;1.27;;
85293;SDS011;76388;43.958;2.882;2024-02-26T05:49:42;4.75;;;1.13;;
85293;SDS011;76388;43.958;2.882;2024-02-26T05:52:09;5.38;;;1.10;;
85293;SDS011;76388;43.958;2.882;2024-02-26T05:54:35;6.72;;;1.42;;
85293;SDS011;76388;43.958;2.882;2024-02-26T05:57:01;5.50;;;1.25;;
85293;SDS011;76388;43.958;2.882;2024-02-26T05:59:27;11.02;;;1.50;;
85293;SDS011;76388;43.958;2.882;2024-02-26T06:01:53;10.07;;;1.10;;
85293;SDS011;76388;43.958;2.882;2024-02-26T06:04:19;4.50;;;0.93;;
85293;SDS011;76388;43.958;2.882;2024-02-26T06:06:46;5.03;;;1.20;;
85293;SDS011;76388;43.958;2.882;2024-02-26T06:09:12;5.85;;;0.93;;
85293;SDS011;76388;43.958;2.882;2024-02-26T06:11:38;7.80;;;1.30;;
85293;SDS011;76388;43.958;2.882;2024-02-26T06:14:04;11.65;;;1.27;;
85293;SDS011;76388;43.958;2.882;2024-02-26T06:16:31;7.05;;;1.40;;
85293;SDS011;76388;43.958;2.882;2024-02-26T06:18:57;7.63;;;1.13;;
85293;SDS011;76388;43.958;2.882;2024-02-26T06:21:23;8.27;;;1.40;;
85293;SDS011;76388;43.958;2.882;2024-02-26T06:23:49;4.32;;;1.10;;
85293;SDS011;76388;43.958;2.882;2024-02-26T06:26:16;7.05;;;1.20;;
85293;SDS011;76388;43.958;2.882;2024-02-26T06:28:42;6.82;;;0.98;;
85293;SDS011;76388;43.958;2.882;2024-02-26T06:31:08;5.90;;;1.35;;
85293;SDS011;76388;43.958;2.882;2024-02-26T06:33:34;5.78;;;1.20;;
85293;SDS011;76388;43.958;2.882;2024-02-26T06:36:00;9.15;;;1.30;;
85293;SDS011;76388;43.958;2.882;2024-02-26T06:38:26;7.63;;;1.13;;
85293;SDS011;76388;43.958;2.882;2024-02-26T06:40:52;4.88;;;0.90;;
85293;SDS011;76388;43.958;2.882;2024-02-26T06:43:19;4.80;;;1.35;;
85293;SDS011;76388;43.958;2.882;2024-02-26T06:45:45;8.95;;;1.30;;
85293;SDS011;76388;43.958;2.882;2024-02-26T06:48:11;6.60;;;1.38;;
85293;SDS011;76388;43.958;2.882;2024-02-26T06:50:37;6.45;;;1.85;;
85293;SDS011;76388;43.958;2.882;2024-02-26T06:53:03;7.25;;;1.10;;
85293;SDS011;76388;43.958;2.882;2024-02-26T06:55:30;10.75;;;2.15;;
85293;SDS011;76388;43.958;2.882;2024-02-26T06:57:56;6.70;;;1.63;;
85293;SDS011;76388;43.958;2.882;2024-02-26T07:00:22;8.15;;;1.38;;
85293;SDS011;76388;43.958;2.882;2024-02-26T07:02:48;8.57;;;2.03;;
85293;SDS011;76388;43.958;2.882;2024-02-26T07:05:15;7.95;;;2.13;;
85293;SDS011;76388;43.958;2.882;2024-02-26T07:07:42;7.95;;;2.58;;
85293;SDS011;76388;43.958;2.882;2024-02-26T07:10:09;9.38;;;1.42;;
85293;SDS011;76388;43.958;2.882;2024-02-26T07:12:38;5.68;;;1.60;;
85293;SDS011;76388;43.958;2.882;2024-02-26T07:15:04;8.52;;;2.10;;
85293;SDS011;76388;43.958;2.882;2024-02-26T07:17:33;9.27;;;1.80;;
85293;SDS011;76388;43.958;2.882;2024-02-26T07:19:59;6.80;;;1.50;;
85293;SDS011;76388;43.958;2.882;2024-02-26T07:22:25;6.85;;;1.58;;
85293;SDS011;76388;43.958;2.882;2024-02-26T07:24:51;6.93;;;1.15;;
85293;SDS011;76388;43.958;2.882;2024-02-26T07:27:18;6.65;;;1.40;;
85293;SDS011;76388;43.958;2.882;2024-02-26T07:29:46;7.95;;;1.30;;
85293;SDS011;76388;43.958;2.882;2024-02-26T07:32:12;6.65;;;1.10;;
85293;SDS011;76388;43.958;2.882;2024-02-26T07:34:39;8.15;;;1.40;;
85293;SDS011;76388;43.958;2.882;2024-02-26T07:37:07;3.05;;;0.88;;
85293;SDS011;76388;43.958;2.882;2024-02-26T07:39:34;5.32;;;1.00;;
85293;SDS011;76388;43.958;2.882;2024-02-26T07:42:00;7.57;;;1.40;;
85293;SDS011;76388;43.958;2.882;2024-02-26T07:44:27;6.88;;;1.23;;
85293;SDS011;76388;43.958;2.882;2024-02-26T07:46:54;7.00;;;1.13;;
85293;SDS011;76388;43.958;2.882;2024-02-26T07:49:21;7.97;;;1.30;;
85293;SDS011;76388;43.958;2.882;2024-02-26T07:51:47;7.65;;;1.30;;
85293;SDS011;76388;43.958;2.882;2024-02-26T07:54:13;8.27;;;1.45;;
85293;SDS011;76388;43.958;2.882;2024-02-26T07:56:41;5.22;;;1.10;;
85293;SDS011;76388;43.958;2.882;2024-02-26T07:59:07;6.57;;;1.33;;
85293;SDS011;76388;43.958;2.882;2024-02-26T08:01:35;7.28;;;1.30;;
85293;SDS011;76388;43.958;2.882;2024-02-26T08:04:04;7.20;;;1.60;;
85293;SDS011;76388;43.958;2.882;2024-02-26T08:06:33;6.72;;;0.98;;
85293;SDS011;76388;43.958;2.882;2024-02-26T08:08:59;5.28;;;1.05;;
85293;SDS011;76388;43.958;2.882;2024-02-26T08:11:25;4.70;;;1.27;;
85293;SDS011;76388;43.958;2.882;2024-02-26T08:13:53;5.03;;;1.00;;
85293;SDS011;76388;43.958;2.882;2024-02-26T08:16:19;7.70;;;1.55;;
85293;SDS011;76388;43.958;2.882;2024-02-26T08:18:46;8.07;;;1.20;;
85293;SDS011;76388;43.958;2.882;2024-02-26T08:21:13;6.63;;;1.05;;
85293;SDS011;76388;43.958;2.882;2024-02-26T08:23:40;4.53;;;1.10;;
85293;SDS011;76388;43.958;2.882;2024-02-26T08:26:06;6.90;;;1.25;;
85293;SDS011;76388;43.958;2.882;2024-02-26T08:28:36;6.80;;;1.30;;
85293;SDS011;76388;43.958;2.882;2024-02-26T08:31:02;4.55;;;0.95;;
85293;SDS011;76388;43.958;2.882;2024-02-26T08:33:29;4.97;;;1.00;;
85293;SDS011;76388;43.958;2.882;2024-02-26T08:35:56;5.38;;;0.90;;
85293;SDS011;76388;43.958;2.882;2024-02-26T08:38:22;7.47;;;1.10;;
85293;SDS011;76388;43.958;2.882;2024-02-26T08:40:48;5.45;;;0.93;;
85293;SDS011;76388;43.958;2.882;2024-02-26T08:43:14;6.57;;;1.15;;
85293;SDS011;76388;43.958;2.882;2024-02-26T08:45:40;8.68;;;1.20;;
85293;SDS011;76388;43.958;2.882;2024-02-26T08:48:07;5.50;;;1.10;;
85293;SDS011;76388;43.958;2.882;2024-02-26T08:50:33;4.43;;;1.25;;
85293;SDS011;76388;43.958;2.882;2024-02-26T08:52:59;5.82;;;1.30;;
85293;SDS011;76388;43.958;2.882;2024-02-26T08:55:26;7.00;;;1.17;;
85293;SDS011;76388;43.958;2.882;2024-02-26T08:57:52;3.47;;;0.77;;
85293;SDS011;76388;43.958;2.882;2024-02-26T09:00:18;7.88;;;1.15;;
85293;SDS011;76388;43.958;2.882;2024-02-26T09:02:47;5.30;;;0.90;;
85293;SDS011;76388;43.958;2.882;2024-02-26T09:05:14;5.30;;;1.00;;
85293;SDS011;76388;43.958;2.882;2024-02-26T09:07:41;5.78;;;1.10;;
85293;SDS011;76388;43.958;2.882;2024-02-26T09:10:07;3.15;;;0.77;;
85293;SDS011;76388;43.958;2.882;2024-02-26T09:12:36;6.28;;;1.25;;
85293;SDS011;76388;43.958;2.882;2024-02-26T09:15:02;4.15;;;0.80;;
85293;SDS011;76388;43.958;2.882;2024-02-26T09:17:29;4.15;;;0.95;;
85293;SDS011;76388;43.958;2.882;2024-02-26T09:19:55;6.13;;;1.00;;
85293;SDS011;76388;43.958;2.882;2024-02-26T09:22:28;7.07;;;1.00;;
85293;SDS011;76388;43.958;2.882;2024-02-26T11:01:53;6.13;;;1.00;;
85293;SDS011;76388;43.958;2.882;2024-02-26T11:04:20;5.38;;;1.00;;
85293;SDS011;76388;43.958;2.882;2024-02-26T11:06:48;6.25;;;1.25;;
85293;SDS011;76388;43.958;2.882;2024-02-26T11:09:15;6.75;;;1.48;;
85293;SDS011;76388;43.958;2.882;2024-02-26T11:11:42;5.53;;;0.90;;
85293;SDS011;76388;43.958;2.882;2024-02-26T11:14:09;6.80;;;1.25;;
85293;SDS011;76388;43.958;2.882;2024-02-26T11:16:35;5.13;;;0.90;;
85293;SDS011;76388;43.958;2.882;2024-02-26T11:19:02;5.55;;;1.17;;
85293;SDS011;76388;43.958;2.882;2024-02-26T11:21:28;4.75;;;1.30;;
85293;SDS011;76388;43.958;2.882;2024-02-26T11:24:05;7.05;;;1.00;;
85293;SDS011;76388;43.958;2.882;2024-02-26T11:26:33;6.50;;;0.98;;
85293;SDS011;76388;43.958;2.882;2024-02-26T11:29:01;5.03;;;1.10;;
85293;SDS011;76388;43.958;2.882;2024-02-26T11:31:28;6.18;;;1.33;;
85293;SDS011;76388;43.958;2.882;2024-02-26T11:33:54;3.92;;;0.93;;
85293;SDS011;76388;43.958;2.882;2024-02-26T11:36:22;7.82;;;1.00;;
85293;SDS011;76388;43.958;2.882;2024-02-26T11:38:49;5.93;;;1.38;;
85293;SDS011;76388;43.958;2.882;2024-02-26T11:41:17;5.47;;;0.80;;
85293;SDS011;76388;43.958;2.882;2024-02-26T11:43:50;4.55;;;1.08;;
85293;SDS011;76388;43.958;2.882;2024-02-26T11:46:27;6.90;;;1.10;;
85293;SDS011;76388;43.958;2.882;2024-02-26T11:48:58;4.47;;;0.95;;
85293;SDS011;76388;43.958;2.882;2024-02-26T11:51:27;4.53;;;1.10;;
85293;SDS011;76388;43.958;2.882;2024-02-26T11:53:57;4.05;;;0.80;;
85293;SDS011;76388;43.958;2.882;2024-02-26T11:56:24;7.57;;;1.15;;
85293;SDS011;76388;43.958;2.882;2024-02-26T11:58:53;4.82;;;0.73;;
85293;SDS011;76388;43.958;2.882;2024-02-26T12:01:44;7.50;;;1.23;;
85293;SDS011;76388;43.958;2.882;2024-02-26T12:04:18;6.28;;;1.10;;
85293;SDS011;76388;43.958;2.882;2024-02-26T12:06:52;7.28;;;1.25;;
85293;SDS011;76388;43.958;2.882;2024-02-26T12:09:32;5.13;;;1.00;;
85293;SDS011;76388;43.958;2.882;2024-02-26T12:12:01;5.63;;;0.80;;
85293;SDS011;76388;43.958;2.882;2024-02-26T12:14:28;8.60;;;1.13;;
85293;SDS011;76388;43.958;2.882;2024-02-26T12:16:55;8.93;;;1.42;;
85293;SDS011;76388;43.958;2.882;2024-02-26T12:19:23;9.48;;;1.23;;
85293;SDS011;76388;43.958;2.882;2024-02-26T12:21:52;3.70;;;0.77;;
85293;SDS011;76388;43.958;2.882;2024-02-26T12:24:20;7.10;;;1.10;;
85293;SDS011;76388;43.958;2.882;2024-02-26T12:26:47;5.03;;;1.10;;
85293;SDS011;76388;43.958;2.882;2024-02-26T12:29:13;7.32;;;1.20;;
85293;SDS011;76388;43.958;2.882;2024-02-26T12:31:39;7.32;;;1.20;;
85293;SDS011;76388;43.958;2.882;2024-02-26T12:34:06;4.50;;;1.00;;
85293;SDS011;76388;43.958;2.882;2024-02-26T12:36:34;3.35;;;0.82;;
85293;SDS011;76388;43.958;2.882;2024-02-26T12:39:02;6.53;;;1.10;;
85293;SDS011;76388;43.958;2.882;2024-02-26T12:41:31;3.30;;;0.90;;
85293;SDS011;76388;43.958;2.882;2024-02-26T12:43:58;4.63;;;1.00;;
85293;SDS011;76388;43.958;2.882;2024-02-26T12:46:24;4.88;;;1.20;;
85293;SDS011;76388;43.958;2.882;2024-02-26T12:48:50;4.85;;;0.95;;
85293;SDS011;76388;43.958;2.882;2024-02-26T12:51:17;4.13;;;0.93;;
85293;SDS011;76388;43.958;2.882;2024-02-26T12:53:44;5.50;;;1.17;;
85293;SDS011;76388;43.958;2.882;2024-02-26T12:56:11;4.75;;;1.00;;
85293;SDS011;76388;43.958;2.882;2024-02-26T12:58:39;3.35;;;1.02;;
85293;SDS011;76388;43.958;2.882;2024-02-26T13:01:05;3.70;;;0.70;;
85293;SDS011;76388;43.958;2.882;2024-02-26T13:03:32;7.03;;;0.98;;
85293;SDS011;76388;43.958;2.882;2024-02-26T13:06:00;3.03;;;0.60;;
85293;SDS011;76388;43.958;2.882;2024-02-26T13:08:28;4.70;;;1.17;;
85293;SDS011;76388;43.958;2.882;2024-02-26T13:10:54;5.43;;;0.80;;
85293;SDS011;76388;43.958;2.882;2024-02-26T13:13:20;2.92;;;1.00;;
85293;SDS011;76388;43.958;2.882;2024-02-26T13:15:46;5.28;;;0.90;;
85293;SDS011;76388;43.958;2.882;2024-02-26T13:18:13;5.88;;;1.17;;
85293;SDS011;76388;43.958;2.882;2024-02-26T13:20:40;3.92;;;0.80;;
85293;SDS011;76388;43.958;2.882;2024-02-26T13:23:07;5.55;;;0.88;;
85293;SDS011;76388;43.958;2.882;2024-02-26T13:25:37;7.28;;;1.20;;
85293;SDS011;76388;43.958;2.882;2024-02-26T13:28:11;5.72;;;0.98;;
85293;SDS011;76388;43.958;2.882;2024-02-26T13:30:50;3.60;;;0.80;;
85293;SDS011;76388;43.958;2.882;2024-02-26T13:33:18;3.42;;;0.77;;
85293;SDS011;76388;43.958;2.882;2024-02-26T13:35:45;3.58;;;0.82;;
85293;SDS011;76388;43.958;2.882;2024-02-26T13:38:11;4.53;;;0.90;;
85293;SDS011;76388;43.958;2.882;2024-02-26T13:40:38;3.30;;;0.93;;
85293;SDS011;76388;43.958;2.882;2024-02-26T13:43:04;5.65;;;1.10;;
85293;SDS011;76388;43.958;2.882;2024-02-26T13:45:34;5.32;;;1.05;;
85293;SDS011;76388;43.958;2.882;2024-02-26T13:48:02;5.30;;;1.17;;
85293;SDS011;76388;43.958;2.882;2024-02-26T13:50:29;3.35;;;0.90;;
85293;SDS011;76388;43.958;2.882;2024-02-26T13:52:55;4.05;;;1.40;;
85293;SDS011;76388;43.958;2.882;2024-02-26T13:55:23;3.92;;;0.85;;
85293;SDS011;76388;43.958;2.882;2024-02-26T13:57:52;2.30;;;0.75;;
85293;SDS011;76388;43.958;2.882;2024-02-26T14:00:19;3.95;;;1.00;;
85293;SDS011;76388;43.958;2.882;2024-02-26T14:02:46;3.00;;;1.00;;
85293;SDS011;76388;43.958;2.882;2024-02-26T14:05:12;3.65;;;1.00;;
85293;SDS011;76388;43.958;2.882;2024-02-26T14:07:39;5.18;;;1.20;;
85293;SDS011;76388;43.958;2.882;2024-02-26T14:10:05;5.45;;;1.48;;
85293;SDS011;76388;43.958;2.882;2024-02-26T14:12:32;6.40;;;1.10;;
85293;SDS011;76388;43.958;2.882;2024-02-26T14:14:58;2.67;;;0.73;;
85293;SDS011;76388;43.958;2.882;2024-02-26T14:17:26;4.18;;;0.82;;
85293;SDS011;76388;43.958;2.882;2024-02-26T14:19:52;8.30;;;1.05;;
85293;SDS011;76388;43.958;2.882;2024-02-26T14:22:19;6.03;;;1.08;;
85293;SDS011;76388;43.958;2.882;2024-02-26T14:24:46;4.85;;;1.00;;
85293;SDS011;76388;43.958;2.882;2024-02-26T14:27:13;4.43;;;1.20;;
85293;SDS011;76388;43.958;2.882;2024-02-26T14:29:41;3.92;;;0.95;;
85293;SDS011;76388;43.958;2.882;2024-02-26T14:32:08;4.10;;;0.70;;
85293;SDS011;76388;43.958;2.882;2024-02-26T14:34:35;3.13;;;0.93;;
85293;SDS011;76388;43.958;2.882;2024-02-26T14:37:01;3.88;;;0.73;;
85293;SDS011;76388;43.958;2.882;2024-02-26T14:39:29;3.40;;;0.70;;
85293;SDS011;76388;43.958;2.882;2024-02-26T14:41:56;4.65;;;0.90;;
85293;SDS011;76388;43.958;2.882;2024-02-26T14:44:23;5.63;;;0.95;;
85293;SDS011;76388;43.958;2.882;2024-02-26T14:46:49;3.78;;;1.05;;
85293;SDS011;76388;43.958;2.882;2024-02-26T14:49:16;3.38;;;0.90;;
85293;SDS011;76388;43.958;2.882;2024-02-26T14:51:42;2.80;;;0.90;;
85293;SDS011;76388;43.958;2.882;2024-02-26T14:54:11;5.13;;;0.90;;
85293;SDS011;76388;43.958;2.882;2024-02-26T14:56:37;4.13;;;0.80;;
85293;SDS011;76388;43.958;2.882;2024-02-26T14:59:03;6.05;;;1.02;;
85293;SDS011;76388;43.958;2.882;2024-02-26T15:01:30;5.95;;;0.70;;
85293;SDS011;76388;43.958;2.882;2024-02-26T15:03:56;4.72;;;0.93;;
85293;SDS011;76388;43.958;2.882;2024-02-26T15:06:22;4.85;;;1.00;;
85293;SDS011;76388;43.958;2.882;2024-02-26T15:08:49;3.65;;;1.00;;
85293;SDS011;76388;43.958;2.882;2024-02-26T15:11:15;4.22;;;0.82;;
85293;SDS011;76388;43.958;2.882;2024-02-26T15:13:41;3.03;;;1.02;;
85293;SDS011;76388;43.958;2.882;2024-02-26T15:16:07;2.40;;;0.70;;
85293;SDS011;76388;43.958;2.882;2024-02-26T15:18:34;3.05;;;1.00;;
85293;SDS011;76388;43.958;2.882;2024-02-26T15:21:02;4.25;;;1.00;;
85293;SDS011;76388;43.958;2.882;2024-02-26T15:23:28;5.50;;;1.02;;
85293;SDS011;76388;43.958;2.882;2024-02-26T15:25:55;3.72;;;1.00;;
85293;SDS011;76388;43.958;2.882;2024-02-26T15:28:21;1.95;;;0.93;;
85293;SDS011;76388;43.958;2.882;2024-02-26T15:30:47;4.78;;;0.90;;
85293;SDS011;76388;43.958;2.882;2024-02-26T15:33:13;4.35;;;1.23;;
85293;SDS011;76388;43.958;2.882;2024-02-26T15:35:40;3.13;;;1.00;;
85293;SDS011;76388;43.958;2.882;2024-02-26T15:38:10;3.83;;;1.20;;
85293;SDS011;76388;43.958;2.882;2024-02-26T15:40:36;3.92;;;0.93;;
85293;SDS011;76388;43.958;2.882;2024-02-26T15:43:02;5.95;;;0.95;;
85293;SDS011;76388;43.958;2.882;2024-02-26T15:45:29;1.10;;;0.50;;
85293;SDS011;76388;43.958;2.882;2024-02-26T15:47:57;4.97;;;1.20;;
85293;SDS011;76388;43.958;2.882;2024-02-26T15:50:24;5.50;;;1.00;;
85293;SDS011;76388;43.958;2.882;2024-02-26T15:52:50;2.58;;;0.90;;
85293;SDS011;76388;43.958;2.882;2024-02-26T15:55:16;6.10;;;1.27;;
85293;SDS011;76388;43.958;2.882;2024-02-26T15:57:42;3.30;;;0.98;;
85293;SDS011;76388;43.958;2.882;2024-02-26T16:00:09;5.63;;;1.02;;
85293;SDS011;76388;43.958;2.882;2024-02-26T16:02:36;3.42;;;1.05;;
85293;SDS011;76388;43.958;2.882;2024-02-26T16:05:03;2.67;;;0.70;;
85293;SDS011;76388;43.958;2.882;2024-02-26T16:07:32;2.08;;;0.80;;
85293;SDS011;76388;43.958;2.882;2024-02-26T16:10:03;5.05;;;1.15;;
85293;SDS011;76388;43.958;2.882;2024-02-26T16:12:35;1.50;;;0.70;;
85293;SDS011;76388;43.958;2.882;2024-02-26T16:15:04;3.85;;;1.10;;
85293;SDS011;76388;43.958;2.882;2024-02-26T16:17:32;2.80;;;0.90;;